createdAt,value
2024-02-19T00:01:16.329Z,98127.00
2024-02-19T00:03:43.680Z,98118.00
2024-02-19T00:06:10.590Z,98139.00
2024-02-19T00:08:37.468Z,98137.00
2024-02-19T00:11:04.553Z,98136.00
2024-02-19T00:13:31.473Z,98120.00
2024-02-19T00:15:58.315Z,98141.00
2024-02-19T00:18:25.335Z,98142.00
2024-02-19T00:20:52.216Z,98141.00
2024-02-19T00:23:19.056Z,98142.00
2024-02-19T00:25:45.876Z,98139.00
2024-02-19T00:28:13.326Z,98152.00
2024-02-19T00:30:40.388Z,98146.00
2024-02-19T00:33:07.658Z,98147.00
2024-02-19T00:35:34.559Z,98149.00
2024-02-19T00:38:01.444Z,98162.00
2024-02-19T00:40:28.696Z,98159.00
2024-02-19T00:42:55.619Z,98168.00
2024-02-19T00:45:22.595Z,98170.00
2024-02-19T00:47:49.467Z,98159.00
2024-02-19T00:50:17.159Z,98173.00
2024-02-19T00:52:44.322Z,98175.00
2024-02-19T00:55:11.366Z,98202.00
2024-02-19T00:57:38.758Z,98185.00
2024-02-19T01:00:07.389Z,98200.00
2024-02-19T01:02:34.327Z,98186.00
2024-02-19T01:05:01.547Z,98181.00
2024-02-19T01:07:28.560Z,98191.00
2024-02-19T01:09:55.572Z,98184.00
2024-02-19T01:12:22.545Z,98179.00
2024-02-19T01:14:49.372Z,98189.00
2024-02-19T01:17:16.517Z,98181.00
2024-02-19T01:19:45.489Z,98184.00
2024-02-19T01:22:12.777Z,98195.00
2024-02-19T01:24:40.167Z,98183.00
2024-02-19T01:27:07.660Z,98202.00
2024-02-19T01:29:35.257Z,98200.00
2024-02-19T01:32:02.162Z,98213.00
2024-02-19T01:34:30.866Z,98216.00
2024-02-19T01:36:58.839Z,98215.00
2024-02-19T01:39:26.671Z,98219.00
2024-02-19T01:41:53.496Z,98221.00
2024-02-19T01:44:20.458Z,98214.00
2024-02-19T01:46:48.026Z,98207.00
2024-02-19T01:49:15.810Z,98212.00
2024-02-19T01:51:44.171Z,98216.00
2024-02-19T01:54:13.829Z,98224.00
2024-02-19T01:56:42.504Z,98212.00
2024-02-19T01:59:11.982Z,98218.00
2024-02-19T02:01:43.326Z,98217.00
2024-02-19T02:04:10.671Z,98230.00
2024-02-19T02:06:38.303Z,98229.00
2024-02-19T02:09:08.022Z,98230.00
2024-02-19T02:11:35.081Z,98238.00
2024-02-19T02:14:01.914Z,98251.00
2024-02-19T02:16:32.028Z,98240.00
2024-02-19T02:18:59.316Z,98268.00
2024-02-19T02:21:26.388Z,98245.00
2024-02-19T02:23:53.286Z,98248.00
2024-02-19T02:26:20.493Z,98258.00
2024-02-19T02:28:47.333Z,98281.00
2024-02-19T02:31:14.276Z,98263.00
2024-02-19T02:33:41.611Z,98257.00
2024-02-19T02:36:11.379Z,98286.00
2024-02-19T02:38:38.569Z,98279.00
2024-02-19T02:41:05.547Z,98286.00
2024-02-19T02:43:32.480Z,98284.00
2024-02-19T02:45:59.435Z,98286.00
2024-02-19T02:48:26.790Z,98297.00
2024-02-19T02:50:53.659Z,98296.00
2024-02-19T02:53:22.303Z,98292.00
2024-02-19T02:55:49.492Z,98306.00
2024-02-19T02:58:16.660Z,98295.00
2024-02-19T03:00:43.781Z,98302.00
2024-02-19T03:03:11.076Z,98306.00
2024-02-19T03:05:39.091Z,98310.00
2024-02-19T03:08:06.646Z,98304.00
2024-02-19T03:10:33.511Z,98309.00
2024-02-19T03:13:00.566Z,98317.00
2024-02-19T03:15:27.584Z,98303.00
2024-02-19T03:17:54.851Z,98323.00
2024-02-19T03:20:24.654Z,98303.00
2024-02-19T03:22:51.686Z,98321.00
2024-02-19T03:25:19.752Z,98333.00
2024-02-19T03:27:48.349Z,98327.00
2024-02-19T03:30:15.417Z,98312.00
2024-02-19T03:32:42.453Z,98325.00
2024-02-19T03:35:09.681Z,98323.00
2024-02-19T03:37:36.827Z,98326.00
2024-02-19T03:40:07.302Z,98324.00
2024-02-19T03:42:34.445Z,98341.00
2024-02-19T03:45:02.519Z,98334.00
2024-02-19T03:47:29.424Z,98335.00
2024-02-19T03:49:56.328Z,98346.00
2024-02-19T03:52:23.439Z,98342.00
2024-02-19T03:54:50.373Z,98336.00
2024-02-19T03:57:17.500Z,98340.00
2024-02-19T03:59:44.330Z,98339.00
2024-02-19T04:02:11.177Z,98349.00
2024-02-19T04:04:38.100Z,98362.00
2024-02-19T04:07:05.237Z,98349.00
2024-02-19T04:09:32.600Z,98359.00
2024-02-19T04:11:59.509Z,98353.00
2024-02-19T04:14:26.454Z,98363.00
2024-02-19T04:16:53.299Z,98366.00
2024-02-19T04:19:20.424Z,98368.00
2024-02-19T04:21:47.329Z,98360.00
2024-02-19T04:24:14.337Z,98385.00
2024-02-19T04:26:41.169Z,98385.00
2024-02-19T04:29:11.932Z,98399.00
2024-02-19T04:31:39.173Z,98371.00
2024-02-19T04:34:07.172Z,98379.00
2024-02-19T04:36:34.237Z,98395.00
2024-02-19T04:39:01.247Z,98383.00
2024-02-19T04:41:28.064Z,98377.00
2024-02-19T04:43:55.028Z,98390.00
2024-02-19T04:46:21.913Z,98392.00
2024-02-19T04:48:48.873Z,98397.00
2024-02-19T04:51:15.822Z,98388.00
2024-02-19T04:53:42.716Z,98382.00
2024-02-19T04:56:09.661Z,98378.00
2024-02-19T04:58:36.614Z,98399.00
2024-02-19T05:01:03.558Z,98386.00
2024-02-19T05:03:30.492Z,98390.00
2024-02-19T05:05:57.354Z,98387.00
2024-02-19T05:08:24.331Z,98390.00
2024-02-19T05:10:51.585Z,98391.00
2024-02-19T05:13:18.571Z,98403.00
2024-02-19T05:15:45.516Z,98418.00
2024-02-19T05:18:12.990Z,98410.00
2024-02-19T05:20:40.845Z,98411.00
2024-02-19T05:23:07.869Z,98402.00
2024-02-19T05:25:34.737Z,98417.00
2024-02-19T05:28:01.918Z,98413.00
2024-02-19T05:30:28.858Z,98403.00
2024-02-19T05:32:55.802Z,98421.00
2024-02-19T05:35:22.802Z,98415.00
2024-02-19T05:37:49.719Z,98404.00
2024-02-19T05:40:16.995Z,98400.00
2024-02-19T05:42:43.984Z,98414.00
2024-02-19T05:45:11.400Z,98409.00
2024-02-19T05:47:38.576Z,98405.00
2024-02-19T05:50:06.606Z,98414.00
2024-02-19T05:52:33.570Z,98420.00
2024-02-19T05:55:03.115Z,98423.00
2024-02-19T05:57:30.049Z,98424.00
2024-02-19T05:59:59.752Z,98412.00
2024-02-19T06:02:26.983Z,98437.00
2024-02-19T06:04:53.999Z,98424.00
2024-02-19T06:07:20.942Z,98433.00
2024-02-19T06:09:47.966Z,98421.00
2024-02-19T06:12:15.240Z,98430.00
2024-02-19T06:14:42.129Z,98435.00
2024-02-19T06:17:09.722Z,98449.00
2024-02-19T06:19:38.474Z,98439.00
2024-02-19T06:22:07.020Z,98443.00
2024-02-19T06:24:33.883Z,98444.00
2024-02-19T06:27:00.713Z,98436.00
2024-02-19T06:29:27.622Z,98432.00
2024-02-19T06:31:55.668Z,98439.00
2024-02-19T06:34:22.898Z,98436.00
2024-02-19T06:36:49.896Z,98448.00
2024-02-19T06:39:16.762Z,98434.00
2024-02-19T06:41:45.396Z,98439.00
2024-02-19T06:44:12.305Z,98445.00
2024-02-19T06:46:39.282Z,98447.00
2024-02-19T06:49:06.581Z,98447.00
2024-02-19T06:51:33.555Z,98447.00
2024-02-19T06:54:00.476Z,98466.00
2024-02-19T06:56:27.323Z,98463.00
2024-02-19T06:58:54.155Z,98458.00
2024-02-19T07:01:21.147Z,98448.00
2024-02-19T07:03:48.090Z,98455.00
2024-02-19T07:06:15.013Z,98466.00
2024-02-19T07:08:41.910Z,98470.00
2024-02-19T07:11:08.809Z,98477.00
2024-02-19T07:13:35.699Z,98471.00
2024-02-19T07:16:02.615Z,98477.00
2024-02-19T07:18:29.595Z,98475.00
2024-02-19T07:20:56.570Z,98468.00
2024-02-19T07:23:23.412Z,98471.00
2024-02-19T07:25:51.643Z,98474.00
2024-02-19T07:28:19.515Z,98494.00
2024-02-19T07:30:46.461Z,98492.00
2024-02-19T07:33:13.425Z,98476.00
2024-02-19T07:35:40.410Z,98481.00
2024-02-19T07:38:07.262Z,98481.00
2024-02-19T07:40:35.829Z,98490.00
2024-02-19T07:43:03.643Z,98498.00
2024-02-19T07:45:30.646Z,98484.00
2024-02-19T07:47:57.533Z,98479.00
2024-02-19T07:50:24.487Z,98472.00
2024-02-19T07:52:51.404Z,98486.00
2024-02-19T07:55:18.318Z,98488.00
2024-02-19T07:57:45.197Z,98481.00
2024-02-19T08:00:12.340Z,98481.00
2024-02-19T08:02:39.204Z,98471.00
2024-02-19T08:05:06.953Z,98490.00
2024-02-19T08:07:33.955Z,98484.00
2024-02-19T08:10:01.120Z,98481.00
2024-02-19T08:12:28.061Z,98472.00
2024-02-19T08:14:55.029Z,98494.00
2024-02-19T08:17:21.903Z,98482.00
2024-02-19T08:19:48.829Z,98503.00
2024-02-19T08:22:15.690Z,98492.00
2024-02-19T08:24:42.696Z,98483.00
2024-02-19T08:27:09.664Z,98495.00
2024-02-19T08:29:39.102Z,98495.00
2024-02-19T08:32:06.640Z,98489.00
2024-02-19T08:34:33.533Z,98489.00
2024-02-19T08:37:00.524Z,98493.00
2024-02-19T08:39:27.527Z,98490.00
2024-02-19T08:41:55.847Z,98491.00
2024-02-19T08:44:22.704Z,98489.00
2024-02-19T08:46:49.853Z,98502.00
2024-02-19T08:49:16.884Z,98495.00
2024-02-19T08:51:44.064Z,98498.00
2024-02-19T08:54:11.657Z,98493.00
2024-02-19T08:56:38.609Z,98502.00
2024-02-19T08:59:05.631Z,98488.00
2024-02-19T09:01:33.060Z,98490.00
2024-02-19T09:04:00.195Z,98497.00
2024-02-19T09:06:27.166Z,98489.00
2024-02-19T09:08:54.114Z,98483.00
2024-02-19T09:11:20.998Z,98482.00
2024-02-19T09:13:51.584Z,98482.00
2024-02-19T09:16:18.619Z,98503.00
2024-02-19T09:18:46.025Z,98491.00
2024-02-19T09:21:13.022Z,98490.00
2024-02-19T09:23:39.854Z,98486.00
2024-02-19T09:26:14.495Z,98495.00
2024-02-19T09:28:41.894Z,98498.00
2024-02-19T09:31:08.849Z,98493.00
2024-02-19T09:33:35.774Z,98485.00
2024-02-19T09:36:04.393Z,98487.00
2024-02-19T09:38:31.296Z,98484.00
2024-02-19T09:40:58.312Z,98492.00
2024-02-19T09:43:28.416Z,98477.00
2024-02-19T09:45:56.276Z,98472.00
2024-02-19T09:48:23.969Z,98476.00
2024-02-19T09:50:54.811Z,98482.00
2024-02-19T09:53:29.126Z,98479.00
2024-02-19T09:55:57.730Z,98480.00
2024-02-19T09:58:24.916Z,98496.00
2024-02-19T10:00:51.927Z,98479.00
2024-02-19T10:03:20.336Z,98477.00
2024-02-19T10:05:48.897Z,98487.00
2024-02-19T10:08:16.454Z,98477.00
2024-02-19T10:10:46.910Z,98492.00
2024-02-19T10:13:14.623Z,98489.00
2024-02-19T10:15:41.770Z,98471.00
2024-02-19T10:18:18.738Z,98481.00
2024-02-19T10:20:51.861Z,98489.00
2024-02-19T10:23:23.521Z,98477.00
2024-02-19T10:25:51.031Z,98488.00
2024-02-19T10:28:23.418Z,98480.00
2024-02-19T10:30:51.261Z,98480.00
2024-02-19T10:33:19.933Z,98472.00
2024-02-19T10:35:49.476Z,98490.00
2024-02-19T10:38:17.461Z,98493.00
2024-02-19T10:40:44.896Z,98498.00
2024-02-19T10:43:12.438Z,98481.00
2024-02-19T10:45:40.146Z,98485.00
2024-02-19T10:48:08.963Z,98496.00
2024-02-19T10:50:37.480Z,98489.00
2024-02-19T10:53:09.519Z,98489.00
2024-02-19T10:55:48.812Z,98486.00
2024-02-19T10:58:28.039Z,98477.00
2024-02-19T11:01:01.955Z,98498.00
2024-02-19T11:03:29.070Z,98497.00
2024-02-19T11:06:02.900Z,98492.00
2024-02-19T11:08:35.923Z,98491.00
2024-02-19T11:11:04.923Z,98487.00
2024-02-19T11:13:37.129Z,98490.00
2024-02-19T11:16:14.993Z,98483.00
2024-02-19T11:18:42.050Z,98486.00
2024-02-19T11:21:10.209Z,98493.00
2024-02-19T11:23:37.468Z,98486.00
2024-02-19T11:26:05.185Z,98469.00
2024-02-19T11:28:34.093Z,98481.00
2024-02-19T11:31:05.374Z,98474.00
2024-02-19T11:33:32.325Z,98472.00
2024-02-19T11:35:59.298Z,98458.00
2024-02-19T11:38:31.195Z,98460.00
2024-02-19T11:40:59.147Z,98453.00
2024-02-19T11:43:29.145Z,98432.00
2024-02-19T11:45:56.683Z,98432.00
2024-02-19T11:48:23.726Z,98441.00
2024-02-19T11:50:51.111Z,98434.00
2024-02-19T11:53:18.060Z,98444.00
2024-02-19T11:55:45.007Z,98426.00
2024-02-19T11:58:13.213Z,98433.00
2024-02-19T12:00:40.223Z,98413.00
2024-02-19T12:03:07.094Z,98433.00
2024-02-19T12:05:34.001Z,98434.00
2024-02-19T12:08:01.116Z,98430.00
2024-02-19T12:10:28.900Z,98405.00
2024-02-19T12:12:56.568Z,98396.00
2024-02-19T12:15:23.547Z,98396.00
2024-02-19T12:17:50.666Z,98383.00
2024-02-19T12:20:19.061Z,98389.00
2024-02-19T12:22:46.180Z,98385.00
2024-02-19T12:25:13.721Z,98394.00
2024-02-19T12:27:41.317Z,98381.00
2024-02-19T12:30:09.801Z,98372.00
2024-02-19T12:32:36.988Z,98387.00
2024-02-19T12:35:04.665Z,98368.00
2024-02-19T12:37:31.974Z,98380.00
2024-02-19T12:39:59.662Z,98378.00
2024-02-19T12:42:26.630Z,98361.00
2024-02-19T12:44:53.803Z,98370.00
2024-02-19T12:47:21.355Z,98369.00
2024-02-19T12:49:48.786Z,98372.00
2024-02-19T12:52:24.832Z,98365.00
2024-02-19T12:54:51.801Z,98362.00
2024-02-19T12:57:21.071Z,98348.00
2024-02-19T12:59:49.112Z,98363.00
2024-02-19T13:02:17.315Z,98355.00
2024-02-19T13:04:44.855Z,98366.00
2024-02-19T13:07:12.225Z,98356.00
2024-02-19T13:09:39.236Z,98354.00
2024-02-19T13:12:08.514Z,98363.00
2024-02-19T13:14:35.555Z,98357.00
2024-02-19T13:17:09.106Z,98350.00
2024-02-19T13:19:40.527Z,98342.00
2024-02-19T13:22:09.616Z,98356.00
2024-02-19T13:24:37.633Z,98339.00
2024-02-19T13:27:05.074Z,98348.00
2024-02-19T13:29:33.689Z,98341.00
2024-02-19T13:32:00.899Z,98338.00
2024-02-19T13:34:28.189Z,98351.00
2024-02-19T13:36:55.821Z,98335.00
2024-02-19T13:39:22.982Z,98332.00
2024-02-19T13:41:50.716Z,98343.00
2024-02-19T13:44:18.057Z,98345.00
2024-02-19T13:46:45.756Z,98334.00
2024-02-19T13:49:13.199Z,98338.00
2024-02-19T13:51:40.252Z,98331.00
2024-02-19T13:54:07.749Z,98334.00
2024-02-19T13:56:34.997Z,98340.00
2024-02-19T13:59:04.473Z,98349.00
2024-02-19T14:01:33.088Z,98352.00
2024-02-19T14:04:01.118Z,98346.00
2024-02-19T14:06:28.579Z,98345.00
2024-02-19T14:08:55.699Z,98335.00
2024-02-19T14:11:22.926Z,98326.00
2024-02-19T14:13:57.721Z,98335.00
2024-02-19T14:16:29.045Z,98330.00
2024-02-19T14:18:56.467Z,98347.00
2024-02-19T14:21:23.470Z,98328.00
2024-02-19T14:23:50.664Z,98323.00
2024-02-19T14:26:17.737Z,98335.00
2024-02-19T14:28:45.219Z,98335.00
2024-02-19T14:31:12.584Z,98299.00
2024-02-19T14:33:40.049Z,98338.00
2024-02-19T14:36:07.340Z,98334.00
2024-02-19T14:38:34.179Z,98330.00
2024-02-19T14:41:01.094Z,98321.00
2024-02-19T14:43:28.273Z,98326.00
2024-02-19T14:45:55.263Z,98312.00
2024-02-19T14:48:22.348Z,98325.00
2024-02-19T14:50:49.849Z,98322.00
2024-02-19T14:53:16.948Z,98301.00
2024-02-19T14:55:43.974Z,98308.00
2024-02-19T14:58:10.937Z,98306.00
2024-02-19T15:00:38.116Z,98303.00
2024-02-19T15:03:11.189Z,98304.00
2024-02-19T15:05:39.136Z,98294.00
2024-02-19T15:08:09.016Z,98257.00
2024-02-19T15:10:37.412Z,98288.00
2024-02-19T15:13:04.811Z,98272.00
2024-02-19T15:15:31.741Z,98272.00
2024-02-19T15:17:58.694Z,98292.00
2024-02-19T15:20:25.800Z,98289.00
2024-02-19T15:22:52.795Z,98284.00
2024-02-19T15:25:20.353Z,98286.00
2024-02-19T15:27:48.048Z,98295.00
2024-02-19T15:30:16.207Z,98306.00
2024-02-19T15:32:43.175Z,98295.00
2024-02-19T15:35:10.635Z,98294.00
2024-02-19T15:37:37.637Z,98294.00
2024-02-19T15:40:05.342Z,98301.00
2024-02-19T15:42:37.696Z,98290.00
2024-02-19T15:45:05.767Z,98296.00
2024-02-19T15:47:32.747Z,98283.00
2024-02-19T15:50:00.841Z,98282.00
2024-02-19T15:52:29.666Z,98289.00
2024-02-19T15:54:56.808Z,98274.00
2024-02-19T15:57:25.825Z,98275.00
2024-02-19T15:59:53.041Z,98282.00
2024-02-19T16:02:21.225Z,98287.00
2024-02-19T16:04:48.393Z,98278.00
2024-02-19T16:07:15.573Z,98285.00
2024-02-19T16:09:42.816Z,98274.00
2024-02-19T16:12:09.704Z,98265.00
2024-02-19T16:14:40.180Z,98282.00
2024-02-19T16:17:08.042Z,98263.00
2024-02-19T16:19:35.080Z,98269.00
2024-02-19T16:22:02.081Z,98256.00
2024-02-19T16:24:34.496Z,98258.00
2024-02-19T16:27:07.554Z,98264.00
2024-02-19T16:29:34.433Z,98264.00
2024-02-19T16:32:01.959Z,98271.00
2024-02-19T16:34:29.045Z,98257.00
2024-02-19T16:36:56.221Z,98258.00
2024-02-19T16:39:24.009Z,98268.00
2024-02-19T16:41:51.114Z,98266.00
2024-02-19T16:44:18.248Z,98267.00
2024-02-19T16:46:46.516Z,98283.00
2024-02-19T16:49:13.424Z,98271.00
2024-02-19T16:51:44.877Z,98263.00
2024-02-19T16:54:12.016Z,98270.00
2024-02-19T16:56:38.973Z,98258.00
2024-02-19T16:59:06.082Z,98272.00
2024-02-19T17:01:33.451Z,98263.00
2024-02-19T17:04:01.681Z,98254.00
2024-02-19T17:06:28.676Z,98264.00
2024-02-19T17:08:55.572Z,98269.00
2024-02-19T17:11:24.697Z,98281.00
2024-02-19T17:13:51.690Z,98273.00
2024-02-19T17:16:18.810Z,98271.00
2024-02-19T17:18:46.162Z,98271.00
2024-02-19T17:21:13.138Z,98266.00
2024-02-19T17:23:44.230Z,98273.00
2024-02-19T17:26:11.219Z,98269.00
2024-02-19T17:28:38.055Z,98266.00
2024-02-19T17:31:05.223Z,98272.00
2024-02-19T17:33:32.252Z,98275.00
2024-02-19T17:35:59.151Z,98279.00
2024-02-19T17:38:26.002Z,98279.00
2024-02-19T17:40:55.411Z,98271.00
2024-02-19T17:43:22.397Z,98274.00
2024-02-19T17:45:49.473Z,98274.00
2024-02-19T17:48:16.510Z,98280.00
2024-02-19T17:50:43.450Z,98290.00
2024-02-19T17:53:10.306Z,98274.00
2024-02-19T17:55:37.274Z,98292.00
2024-02-19T17:58:04.468Z,98287.00
2024-02-19T18:00:31.628Z,98290.00
2024-02-19T18:03:01.924Z,98281.00
2024-02-19T18:05:29.138Z,98268.00
2024-02-19T18:07:56.020Z,98292.00
2024-02-19T18:10:23.242Z,98282.00
2024-02-19T18:12:50.440Z,98285.00
2024-02-19T18:15:22.381Z,98285.00
2024-02-19T18:17:51.652Z,98271.00
2024-02-19T18:20:19.588Z,98287.00
2024-02-19T18:22:46.456Z,98275.00
2024-02-19T18:25:13.584Z,98274.00
2024-02-19T18:27:40.673Z,98287.00
2024-02-19T18:30:10.643Z,98270.00
2024-02-19T18:32:41.328Z,98282.00
2024-02-19T18:35:12.392Z,98286.00
2024-02-19T18:37:39.562Z,98280.00
2024-02-19T18:40:08.854Z,98273.00
2024-02-19T18:42:36.895Z,98287.00
2024-02-19T18:45:04.326Z,98271.00
2024-02-19T18:47:31.617Z,98266.00
2024-02-19T18:49:59.127Z,98275.00
2024-02-19T18:52:26.153Z,98287.00
2024-02-19T18:54:53.472Z,98273.00
2024-02-19T18:57:20.410Z,98284.00
2024-02-19T18:59:47.253Z,98274.00
2024-02-19T19:02:14.892Z,98287.00
2024-02-19T19:04:45.029Z,98273.00
2024-02-19T19:07:12.290Z,98268.00
2024-02-19T19:09:42.036Z,98263.00
2024-02-19T19:12:12.774Z,98275.00
2024-02-19T19:14:40.671Z,98268.00
2024-02-19T19:17:10.449Z,98274.00
2024-02-19T19:19:40.978Z,98269.00
2024-02-19T19:22:08.870Z,98285.00
2024-02-19T19:24:35.865Z,98274.00
2024-02-19T19:27:05.348Z,98269.00
2024-02-19T19:29:32.724Z,98286.00
2024-02-19T19:31:59.642Z,98273.00
2024-02-19T19:34:27.253Z,98270.00
2024-02-19T19:36:54.394Z,98271.00
2024-02-19T19:39:21.519Z,98260.00
2024-02-19T19:41:48.392Z,98275.00
2024-02-19T19:44:18.729Z,98270.00
2024-02-19T19:46:45.980Z,98275.00
2024-02-19T19:49:17.785Z,98259.00
2024-02-19T19:51:45.071Z,98284.00
2024-02-19T19:54:12.472Z,98291.00
2024-02-19T19:56:41.472Z,98269.00
2024-02-19T19:59:09.273Z,98279.00
2024-02-19T20:01:37.440Z,98271.00
2024-02-19T20:04:06.227Z,98291.00
2024-02-19T20:06:34.136Z,98285.00
2024-02-19T20:09:01.391Z,98288.00
2024-02-19T20:11:28.609Z,98297.00
2024-02-19T20:13:55.545Z,98285.00
2024-02-19T20:16:22.488Z,98289.00
2024-02-19T20:18:49.382Z,98274.00
2024-02-19T20:21:17.874Z,98270.00
2024-02-19T20:23:46.127Z,98280.00
2024-02-19T20:26:13.129Z,98271.00
2024-02-19T20:28:40.020Z,98285.00
2024-02-19T20:31:07.130Z,98265.00
2024-02-19T20:33:34.494Z,98286.00
2024-02-19T20:36:01.750Z,98278.00
2024-02-19T20:38:28.880Z,98289.00
2024-02-19T20:40:55.876Z,98285.00
2024-02-19T20:43:23.046Z,98296.00
2024-02-19T20:45:50.280Z,98281.00
2024-02-19T20:48:18.152Z,98282.00
2024-02-19T20:50:45.172Z,98291.00
2024-02-19T20:53:14.471Z,98296.00
2024-02-19T20:55:44.755Z,98303.00
2024-02-19T20:58:11.766Z,98303.00
2024-02-19T21:00:38.954Z,98311.00
2024-02-19T21:03:06.119Z,98299.00
2024-02-19T21:05:33.250Z,98312.00
2024-02-19T21:08:00.655Z,98299.00
2024-02-19T21:10:28.713Z,98309.00
2024-02-19T21:12:56.941Z,98312.00
2024-02-19T21:15:25.199Z,98313.00
2024-02-19T21:17:52.265Z,98318.00
2024-02-19T21:20:19.781Z,98310.00
2024-02-19T21:22:47.105Z,98316.00
2024-02-19T21:25:14.398Z,98313.00
2024-02-19T21:27:41.390Z,98331.00
2024-02-19T21:30:09.920Z,98319.00
2024-02-19T21:32:37.005Z,98320.00
2024-02-19T21:35:07.900Z,98326.00
2024-02-19T21:37:36.353Z,98316.00
2024-02-19T21:40:05.058Z,98324.00
2024-02-19T21:42:35.151Z,98333.00
2024-02-19T21:45:02.092Z,98322.00
2024-02-19T21:47:29.023Z,98329.00
2024-02-19T21:49:56.535Z,98332.00
2024-02-19T21:52:23.964Z,98335.00
2024-02-19T21:54:51.078Z,98339.00
2024-02-19T21:57:18.739Z,98345.00
2024-02-19T21:59:48.608Z,98347.00
2024-02-19T22:02:15.505Z,98357.00
2024-02-19T22:04:42.843Z,98356.00
2024-02-19T22:07:10.170Z,98353.00
2024-02-19T22:09:39.492Z,98360.00
2024-02-19T22:12:06.862Z,98353.00
2024-02-19T22:14:33.690Z,98366.00
2024-02-19T22:17:00.757Z,98357.00
2024-02-19T22:19:27.816Z,98353.00
2024-02-19T22:21:56.774Z,98361.00
2024-02-19T22:24:25.235Z,98368.00
2024-02-19T22:26:52.385Z,98369.00
2024-02-19T22:29:19.231Z,98361.00
2024-02-19T22:31:46.070Z,98361.00
2024-02-19T22:34:13.139Z,98371.00
2024-02-19T22:36:40.148Z,98356.00
2024-02-19T22:39:10.593Z,98374.00
2024-02-19T22:41:41.353Z,98365.00
2024-02-19T22:44:08.473Z,98370.00
2024-02-19T22:46:35.519Z,98355.00
2024-02-19T22:49:02.828Z,98357.00
2024-02-19T22:51:29.782Z,98355.00
2024-02-19T22:53:56.622Z,98365.00
2024-02-19T22:56:23.502Z,98340.00
2024-02-19T22:58:50.335Z,98355.00
2024-02-19T23:01:17.630Z,98355.00
2024-02-19T23:03:44.739Z,98375.00
2024-02-19T23:06:11.650Z,98365.00
2024-02-19T23:08:38.493Z,98367.00
2024-02-19T23:11:06.106Z,98365.00
2024-02-19T23:13:33.140Z,98376.00
2024-02-19T23:16:00.064Z,98370.00
2024-02-19T23:18:27.092Z,98372.00
2024-02-19T23:20:54.000Z,98369.00
2024-02-19T23:23:20.919Z,98367.00
2024-02-19T23:25:51.859Z,98376.00
2024-02-19T23:28:19.087Z,98372.00
2024-02-19T23:30:46.092Z,98371.00
2024-02-19T23:33:13.529Z,98380.00
2024-02-19T23:35:40.476Z,98399.00
2024-02-19T23:38:10.788Z,98381.00
2024-02-19T23:40:39.523Z,98388.00
2024-02-19T23:43:06.386Z,98376.00
2024-02-19T23:45:33.187Z,98378.00
2024-02-19T23:48:00.085Z,98404.00
2024-02-19T23:50:27.069Z,98399.00
2024-02-19T23:52:54.042Z,98402.00
2024-02-19T23:55:21.093Z,98393.00
2024-02-19T23:57:48.321Z,98402.00
